createdAt,value
2023-04-27T00:00:14.690Z,15.87
2023-04-27T00:01:04.752Z,15.88
2023-04-27T00:01:54.822Z,15.87
2023-04-27T00:02:45.015Z,15.90
2023-04-27T00:03:35.014Z,15.89
2023-04-27T00:04:25.410Z,15.87
2023-04-27T00:05:15.495Z,15.87
2023-04-27T00:06:05.348Z,15.87
2023-04-27T00:06:55.347Z,15.87
2023-04-27T00:07:45.439Z,15.85
2023-04-27T00:08:35.498Z,15.86
2023-04-27T00:09:25.546Z,15.85
2023-04-27T00:10:15.550Z,15.86
2023-04-27T00:11:05.625Z,15.86
2023-04-27T00:11:55.677Z,15.88
2023-04-27T00:12:45.754Z,15.93
2023-04-27T00:13:36.045Z,15.92
2023-04-27T00:14:26.116Z,15.91
2023-04-27T00:15:16.195Z,15.91
2023-04-27T00:16:06.527Z,15.90
2023-04-27T00:16:56.507Z,15.88
2023-04-27T00:17:46.640Z,15.87
2023-04-27T00:18:36.642Z,15.86
2023-04-27T00:19:26.669Z,15.85
2023-04-27T00:20:16.728Z,15.83
2023-04-27T00:21:06.809Z,15.81
2023-04-27T00:21:56.849Z,15.81
2023-04-27T00:22:46.926Z,15.83
2023-04-27T00:23:37.025Z,15.84
2023-04-27T00:24:27.029Z,15.85
2023-04-27T00:25:17.229Z,15.90
2023-04-27T00:26:07.306Z,15.93
2023-04-27T00:26:57.349Z,15.91
2023-04-27T00:27:47.680Z,15.89
2023-04-27T00:28:37.774Z,15.88
2023-04-27T00:29:27.793Z,15.90
2023-04-27T00:30:18.106Z,15.89
2023-04-27T00:31:08.188Z,15.87
2023-04-27T00:31:58.289Z,15.85
2023-04-27T00:32:48.307Z,15.86
2023-04-27T00:33:38.382Z,15.85
2023-04-27T00:34:28.414Z,15.83
2023-04-27T00:35:18.446Z,15.83
2023-04-27T00:36:08.505Z,15.83
2023-04-27T00:36:58.567Z,15.82
2023-04-27T00:37:48.628Z,15.81
2023-04-27T00:38:38.717Z,15.81
2023-04-27T00:39:28.970Z,15.81
2023-04-27T00:40:19.009Z,15.82
2023-04-27T00:41:09.083Z,15.81
2023-04-27T00:41:59.395Z,15.81
2023-04-27T00:42:49.472Z,15.83
2023-04-27T00:43:39.553Z,15.86
2023-04-27T00:44:29.841Z,15.87
2023-04-27T00:45:19.898Z,15.88
2023-04-27T00:46:10.029Z,15.90
2023-04-27T00:47:00.308Z,15.90
2023-04-27T00:47:50.395Z,15.90
2023-04-27T00:48:40.457Z,15.91
2023-04-27T00:49:30.763Z,15.91
2023-04-27T00:50:20.813Z,15.90
2023-04-27T00:51:10.881Z,15.90
2023-04-27T00:52:01.165Z,15.89
2023-04-27T00:52:51.239Z,15.88
2023-04-27T00:53:41.288Z,15.90
2023-04-27T00:54:31.338Z,15.88
2023-04-27T00:55:21.395Z,15.86
2023-04-27T00:56:11.457Z,15.86
2023-04-27T00:57:01.527Z,15.83
2023-04-27T00:57:51.588Z,15.82
2023-04-27T00:58:41.680Z,15.81
2023-04-27T00:59:31.684Z,15.83
2023-04-27T01:00:21.750Z,15.84
2023-04-27T01:01:11.987Z,15.84
2023-04-27T01:02:02.007Z,15.86
2023-04-27T01:02:53.112Z,15.88
2023-04-27T01:03:42.266Z,15.87
2023-04-27T01:04:32.420Z,15.89
2023-04-27T01:05:22.219Z,15.88
2023-04-27T01:06:12.266Z,15.88
2023-04-27T01:07:02.333Z,15.92
2023-04-27T01:07:52.578Z,15.90
2023-04-27T01:08:42.671Z,15.88
2023-04-27T01:09:32.706Z,15.88
2023-04-27T01:10:23.050Z,15.87
2023-04-27T01:11:13.079Z,15.86
2023-04-27T01:12:03.151Z,15.89
2023-04-27T01:12:53.473Z,15.88
2023-04-27T01:13:43.544Z,15.87
2023-04-27T01:14:33.612Z,15.88
2023-04-27T01:15:23.918Z,15.88
2023-04-27T01:16:13.979Z,15.87
2023-04-27T01:17:04.136Z,15.87
2023-04-27T01:17:54.112Z,15.86
2023-04-27T01:18:44.154Z,15.86
2023-04-27T01:19:34.237Z,15.87
2023-04-27T01:20:24.256Z,15.86
2023-04-27T01:21:14.336Z,15.88
2023-04-27T01:22:04.452Z,15.88
2023-04-27T01:22:54.458Z,15.88
2023-04-27T01:23:44.540Z,15.88
2023-04-27T01:24:34.819Z,15.89
2023-04-27T01:25:24.873Z,15.88
2023-04-27T01:26:14.960Z,15.86
2023-04-27T01:27:05.263Z,15.85
2023-04-27T01:27:55.367Z,15.85
2023-04-27T01:28:45.409Z,15.86
2023-04-27T01:29:35.690Z,15.86
2023-04-27T01:30:25.753Z,15.84
2023-04-27T01:31:15.866Z,15.82
2023-04-27T01:32:06.121Z,15.82
2023-04-27T01:32:56.218Z,15.84
2023-04-27T01:33:46.241Z,15.84
2023-04-27T01:34:36.263Z,15.85
2023-04-27T01:35:28.209Z,15.83
2023-04-27T01:36:16.384Z,15.81
2023-04-27T01:37:06.445Z,15.81
2023-04-27T01:37:56.509Z,15.79
2023-04-27T01:38:46.570Z,15.79
2023-04-27T01:39:36.602Z,15.76
2023-04-27T01:40:26.791Z,15.73
2023-04-27T01:41:16.890Z,15.75
2023-04-27T01:42:06.923Z,15.76
2023-04-27T01:42:56.956Z,15.81
2023-04-27T01:43:47.034Z,15.79
2023-04-27T01:44:37.069Z,15.73
2023-04-27T01:45:27.130Z,15.69
2023-04-27T01:46:17.235Z,15.70
2023-04-27T01:47:07.279Z,15.64
2023-04-27T01:47:57.394Z,15.61
2023-04-27T01:48:47.400Z,15.55
2023-04-27T01:49:37.612Z,15.56
2023-04-27T01:50:27.634Z,15.58
2023-04-27T01:51:17.704Z,15.60
2023-04-27T01:52:07.794Z,15.58
2023-04-27T01:52:57.848Z,15.55
2023-04-27T01:53:47.896Z,15.55
2023-04-27T01:54:37.957Z,15.51
2023-04-27T01:55:28.028Z,15.51
2023-04-27T01:56:18.101Z,15.46
2023-04-27T01:57:08.167Z,15.49
2023-04-27T01:57:58.203Z,15.51
2023-04-27T01:58:48.432Z,15.51
2023-04-27T01:59:38.460Z,15.53
2023-04-27T02:00:28.512Z,15.55
2023-04-27T02:01:18.900Z,15.59
2023-04-27T02:02:09.012Z,15.61
2023-04-27T02:02:58.999Z,15.62
2023-04-27T02:03:49.187Z,15.61
2023-04-27T02:04:39.254Z,15.59
2023-04-27T02:05:29.117Z,15.57
2023-04-27T02:06:19.196Z,15.56
2023-04-27T02:07:09.241Z,15.55
2023-04-27T02:07:59.406Z,15.53
2023-04-27T02:08:49.479Z,15.50
2023-04-27T02:09:39.519Z,15.53
2023-04-27T02:10:29.826Z,15.53
2023-04-27T02:11:19.896Z,15.53
2023-04-27T02:12:09.961Z,15.53
2023-04-27T02:13:00.059Z,15.56
2023-04-27T02:13:50.115Z,15.60
2023-04-27T02:14:40.148Z,15.59
2023-04-27T02:15:30.213Z,15.61
2023-04-27T02:16:20.353Z,15.64
2023-04-27T02:17:10.389Z,15.65
2023-04-27T02:18:00.466Z,15.67
2023-04-27T02:18:50.466Z,15.71
2023-04-27T02:19:40.704Z,15.70
2023-04-27T02:20:30.770Z,15.72
2023-04-27T02:21:20.839Z,15.74
2023-04-27T02:22:11.111Z,15.72
2023-04-27T02:23:01.201Z,15.71
2023-04-27T02:23:51.235Z,15.66
2023-04-27T02:24:41.272Z,15.64
2023-04-27T02:25:31.291Z,15.62
2023-04-27T02:26:21.360Z,15.59
2023-04-27T02:27:11.419Z,15.59
2023-04-27T02:28:01.512Z,15.62
2023-04-27T02:28:51.591Z,15.66
2023-04-27T02:29:41.638Z,15.63
2023-04-27T02:30:31.681Z,15.65
2023-04-27T02:31:21.788Z,15.64
2023-04-27T02:32:11.819Z,15.66
2023-04-27T02:33:01.901Z,15.65
2023-04-27T02:33:51.925Z,15.66
2023-04-27T02:34:41.995Z,15.68
2023-04-27T02:35:32.056Z,15.69
2023-04-27T02:36:22.133Z,15.70
2023-04-27T02:37:12.197Z,15.72
2023-04-27T02:38:03.746Z,15.74
2023-04-27T02:38:52.448Z,15.72
2023-04-27T02:39:42.521Z,15.75
2023-04-27T02:40:32.848Z,15.74
2023-04-27T02:41:22.947Z,15.71
2023-04-27T02:42:12.971Z,15.68
2023-04-27T02:43:03.310Z,15.67
2023-04-27T02:43:53.404Z,15.68
2023-04-27T02:44:43.422Z,15.66
2023-04-27T02:45:33.440Z,15.67
2023-04-27T02:46:23.528Z,15.66
2023-04-27T02:47:13.577Z,15.70
2023-04-27T02:48:03.679Z,15.70
2023-04-27T02:48:53.718Z,15.72
2023-04-27T02:49:43.761Z,15.73
2023-04-27T02:50:33.776Z,15.72
2023-04-27T02:51:23.866Z,15.73
2023-04-27T02:52:14.167Z,15.74
2023-04-27T02:53:04.244Z,15.72
2023-04-27T02:53:54.284Z,15.73
2023-04-27T02:54:44.317Z,15.74
2023-04-27T02:55:34.343Z,15.73
2023-04-27T02:56:24.412Z,15.72
2023-04-27T02:57:14.478Z,15.72
2023-04-27T02:58:04.554Z,15.75
2023-04-27T02:58:54.628Z,15.75
2023-04-27T02:59:44.849Z,15.79
2023-04-27T03:00:34.733Z,15.79
2023-04-27T03:01:25.044Z,15.77
2023-04-27T03:02:15.044Z,15.76
2023-04-27T03:03:05.254Z,15.77
2023-04-27T03:03:55.347Z,15.79
2023-04-27T03:04:45.305Z,15.84
2023-04-27T03:05:35.281Z,15.87
2023-04-27T03:06:25.358Z,15.95
2023-04-27T03:07:15.377Z,15.99
2023-04-27T03:08:05.722Z,15.95
2023-04-27T03:08:55.818Z,15.93
2023-04-27T03:09:45.837Z,15.89
2023-04-27T03:10:36.170Z,15.88
2023-04-27T03:11:26.224Z,15.87
2023-04-27T03:12:16.264Z,15.88
2023-04-27T03:13:06.297Z,15.88
2023-04-27T03:13:56.347Z,15.88
2023-04-27T03:14:46.394Z,15.85
2023-04-27T03:15:36.468Z,15.80
2023-04-27T03:16:26.551Z,15.79
2023-04-27T03:17:16.558Z,15.76
2023-04-27T03:18:06.707Z,15.73
2023-04-27T03:18:56.693Z,15.71
2023-04-27T03:19:46.975Z,15.71
2023-04-27T03:20:37.046Z,15.73
2023-04-27T03:21:27.113Z,15.71
2023-04-27T03:22:17.398Z,15.69
2023-04-27T03:23:07.494Z,15.70
2023-04-27T03:23:57.540Z,15.71
2023-04-27T03:24:47.563Z,15.71
2023-04-27T03:25:37.635Z,15.74
2023-04-27T03:26:27.723Z,15.74
2023-04-27T03:27:17.778Z,15.72
2023-04-27T03:28:07.820Z,15.68
2023-04-27T03:28:57.874Z,15.70
2023-04-27T03:29:47.891Z,15.73
2023-04-27T03:30:37.955Z,15.71
2023-04-27T03:31:28.232Z,15.68
2023-04-27T03:32:18.266Z,15.65
2023-04-27T03:33:08.353Z,15.60
2023-04-27T03:33:58.637Z,15.61
2023-04-27T03:34:48.669Z,15.61
2023-04-27T03:35:38.728Z,15.62
2023-04-27T03:36:28.797Z,15.63
2023-04-27T03:37:18.877Z,15.61
2023-04-27T03:38:08.918Z,15.62
2023-04-27T03:38:59.010Z,15.60
2023-04-27T03:39:49.035Z,15.59
2023-04-27T03:40:39.061Z,15.59
2023-04-27T03:41:29.132Z,15.58
2023-04-27T03:42:19.194Z,15.59
2023-04-27T03:43:09.541Z,15.59
2023-04-27T03:43:59.580Z,15.59
2023-04-27T03:44:49.609Z,15.57
2023-04-27T03:45:39.739Z,15.56
2023-04-27T03:46:29.863Z,15.57
2023-04-27T03:47:19.766Z,15.60
2023-04-27T03:48:09.878Z,15.59
2023-04-27T03:48:59.944Z,15.58
2023-04-27T03:49:49.984Z,15.58
2023-04-27T03:50:40.053Z,15.59
2023-04-27T03:51:30.122Z,15.62
2023-04-27T03:52:20.406Z,15.64
2023-04-27T03:53:10.468Z,15.65
2023-04-27T03:54:00.551Z,15.68
2023-04-27T03:54:50.838Z,15.68
2023-04-27T03:55:40.946Z,15.69
2023-04-27T03:56:30.958Z,15.68
2023-04-27T03:57:21.320Z,15.63
2023-04-27T03:58:11.320Z,15.63
2023-04-27T03:59:01.406Z,15.63
2023-04-27T03:59:51.442Z,15.63
2023-04-27T04:00:41.470Z,15.62
2023-04-27T04:01:31.590Z,15.64
2023-04-27T04:02:21.818Z,15.63
2023-04-27T04:03:11.863Z,15.64
2023-04-27T04:04:01.814Z,15.68
2023-04-27T04:04:51.882Z,15.71
2023-04-27T04:05:41.814Z,15.71
2023-04-27T04:06:31.889Z,15.71
2023-04-27T04:07:21.940Z,15.73
2023-04-27T04:08:12.016Z,15.73
2023-04-27T04:09:02.094Z,15.72
2023-04-27T04:09:52.140Z,15.72
2023-04-27T04:10:42.203Z,15.73
2023-04-27T04:11:32.273Z,15.73
2023-04-27T04:12:22.299Z,15.72
2023-04-27T04:13:12.592Z,15.71
2023-04-27T04:14:02.637Z,15.70
2023-04-27T04:14:52.674Z,15.71
2023-04-27T04:15:42.773Z,15.70
2023-04-27T04:16:32.811Z,15.74
2023-04-27T04:17:22.835Z,15.73
2023-04-27T04:18:13.048Z,15.71
2023-04-27T04:19:02.953Z,15.70
2023-04-27T04:19:53.022Z,15.68
2023-04-27T04:20:43.087Z,15.66
2023-04-27T04:21:33.171Z,15.66
2023-04-27T04:22:23.188Z,15.66
2023-04-27T04:23:13.278Z,15.67
2023-04-27T04:24:03.364Z,15.69
2023-04-27T04:24:53.382Z,15.68
2023-04-27T04:25:43.448Z,15.67
2023-04-27T04:26:33.552Z,15.63
2023-04-27T04:27:23.568Z,15.63
2023-04-27T04:28:13.600Z,15.64
2023-04-27T04:29:03.948Z,15.65
2023-04-27T04:29:53.985Z,15.69
2023-04-27T04:30:44.047Z,15.70
2023-04-27T04:31:34.120Z,15.74
2023-04-27T04:32:24.163Z,15.75
2023-04-27T04:33:14.184Z,15.73
2023-04-27T04:34:04.249Z,15.73
2023-04-27T04:34:54.294Z,15.73
2023-04-27T04:35:44.335Z,15.73
2023-04-27T04:36:34.408Z,15.73
2023-04-27T04:37:24.744Z,15.74
2023-04-27T04:38:14.768Z,15.74
2023-04-27T04:39:04.868Z,15.72
2023-04-27T04:39:54.892Z,15.70
2023-04-27T04:40:46.115Z,15.72
2023-04-27T04:41:34.992Z,15.70
2023-04-27T04:42:25.072Z,15.67
2023-04-27T04:43:15.142Z,15.63
2023-04-27T04:44:05.247Z,15.58
2023-04-27T04:44:55.263Z,15.56
2023-04-27T04:45:45.325Z,15.53
2023-04-27T04:46:35.419Z,15.55
2023-04-27T04:47:25.565Z,15.54
2023-04-27T04:48:15.488Z,15.55
2023-04-27T04:49:05.545Z,15.56
2023-04-27T04:49:55.592Z,15.58
2023-04-27T04:50:45.670Z,15.70
2023-04-27T04:51:35.933Z,15.68
2023-04-27T04:52:26.012Z,15.63
2023-04-27T04:53:16.076Z,15.64
2023-04-27T04:54:06.181Z,15.59
2023-04-27T04:54:56.211Z,15.53
2023-04-27T04:55:46.286Z,15.54
2023-04-27T04:56:36.323Z,15.54
2023-04-27T04:57:26.397Z,15.52
2023-04-27T04:58:16.460Z,15.51
2023-04-27T04:59:06.563Z,15.51
2023-04-27T04:59:56.587Z,15.53
2023-04-27T05:00:46.622Z,15.61
2023-04-27T05:01:36.715Z,15.63
2023-04-27T05:02:26.833Z,15.63
2023-04-27T05:03:16.926Z,15.62
2023-04-27T05:04:07.167Z,15.61
2023-04-27T05:04:56.969Z,15.61
2023-04-27T05:05:46.940Z,15.58
2023-04-27T05:06:37.000Z,15.56
2023-04-27T05:07:27.064Z,15.54
2023-04-27T05:08:17.134Z,15.55
2023-04-27T05:09:07.179Z,15.58
2023-04-27T05:09:57.234Z,15.60
2023-04-27T05:10:47.245Z,15.60
2023-04-27T05:11:37.328Z,15.62
2023-04-27T05:12:27.367Z,15.67
2023-04-27T05:13:17.449Z,15.69
2023-04-27T05:14:07.756Z,15.72
2023-04-27T05:14:57.789Z,15.73
2023-04-27T05:15:47.879Z,15.71
2023-04-27T05:16:37.943Z,15.72
2023-04-27T05:17:27.967Z,15.69
2023-04-27T05:18:18.028Z,15.70
2023-04-27T05:19:08.084Z,15.72
2023-04-27T05:19:58.136Z,15.72
2023-04-27T05:20:48.163Z,15.64
2023-04-27T05:21:38.256Z,15.63
2023-04-27T05:22:28.308Z,15.63
2023-04-27T05:23:18.589Z,15.66
2023-04-27T05:24:08.678Z,15.69
2023-04-27T05:24:58.718Z,15.68
2023-04-27T05:25:48.758Z,15.72
2023-04-27T05:26:38.791Z,15.69
2023-04-27T05:27:28.817Z,15.67
2023-04-27T05:28:18.895Z,15.67
2023-04-27T05:29:08.953Z,15.70
2023-04-27T05:29:59.030Z,15.67
2023-04-27T05:30:49.077Z,15.65
2023-04-27T05:31:39.121Z,15.61
2023-04-27T05:32:29.239Z,15.64
2023-04-27T05:33:19.234Z,15.60
2023-04-27T05:34:09.279Z,15.63
2023-04-27T05:34:59.298Z,15.67
2023-04-27T05:35:49.351Z,15.67
2023-04-27T05:36:39.429Z,15.68
2023-04-27T05:37:29.510Z,15.67
2023-04-27T05:38:19.571Z,15.69
2023-04-27T05:39:09.596Z,15.68
2023-04-27T05:39:59.674Z,15.70
2023-04-27T05:40:49.773Z,15.72
2023-04-27T05:41:39.777Z,15.72
2023-04-27T05:42:29.849Z,15.72
2023-04-27T05:43:19.915Z,15.75
2023-04-27T05:44:09.979Z,15.70
2023-04-27T05:45:00.057Z,15.67
2023-04-27T05:45:50.124Z,15.67
2023-04-27T05:46:40.314Z,15.72
2023-04-27T05:47:30.360Z,15.79
2023-04-27T05:48:20.428Z,15.72
2023-04-27T05:49:10.451Z,15.67
2023-04-27T05:50:00.553Z,15.63
2023-04-27T05:50:50.581Z,15.65
2023-04-27T05:51:40.618Z,15.69
2023-04-27T05:52:30.648Z,15.71
2023-04-27T05:53:20.752Z,15.68
2023-04-27T05:54:10.767Z,15.70
2023-04-27T05:55:00.841Z,15.70
2023-04-27T05:55:51.130Z,15.70
2023-04-27T05:56:41.218Z,15.63
2023-04-27T05:57:31.276Z,15.62
2023-04-27T05:58:21.570Z,15.68
2023-04-27T05:59:11.904Z,15.75
2023-04-27T06:00:01.694Z,15.78
2023-04-27T06:00:51.695Z,15.78
2023-04-27T06:01:41.764Z,15.74
2023-04-27T06:02:31.937Z,15.72
2023-04-27T06:03:22.054Z,15.75
2023-04-27T06:04:12.027Z,15.74
2023-04-27T06:05:02.091Z,15.73
2023-04-27T06:05:52.041Z,15.74
2023-04-27T06:06:42.094Z,15.74
2023-04-27T06:07:32.161Z,15.72
2023-04-27T06:08:22.187Z,15.69
2023-04-27T06:09:12.476Z,15.75
2023-04-27T06:10:02.321Z,15.74
2023-04-27T06:10:52.358Z,15.71
2023-04-27T06:11:42.437Z,15.66
2023-04-27T06:12:32.458Z,15.65
2023-04-27T06:13:22.510Z,15.64
2023-04-27T06:14:12.550Z,15.67
2023-04-27T06:15:02.636Z,15.70
2023-04-27T06:15:52.720Z,15.68
2023-04-27T06:16:42.745Z,15.62
2023-04-27T06:17:32.794Z,15.57
2023-04-27T06:18:22.824Z,15.56
2023-04-27T06:19:13.019Z,15.58
2023-04-27T06:20:02.954Z,15.59
2023-04-27T06:20:52.975Z,15.60
2023-04-27T06:21:43.020Z,15.59
2023-04-27T06:22:33.053Z,15.58
2023-04-27T06:23:23.385Z,15.57
2023-04-27T06:24:13.456Z,15.65
2023-04-27T06:25:03.584Z,15.68
2023-04-27T06:25:53.594Z,15.66
2023-04-27T06:26:43.634Z,15.69
2023-04-27T06:27:33.657Z,15.77
2023-04-27T06:28:23.724Z,15.81
2023-04-27T06:29:13.953Z,15.74
2023-04-27T06:30:03.910Z,15.66
2023-04-27T06:30:53.949Z,15.72
2023-04-27T06:31:44.042Z,15.71
2023-04-27T06:32:34.324Z,15.67
2023-04-27T06:33:24.394Z,15.67
2023-04-27T06:34:14.426Z,15.67
2023-04-27T06:35:04.509Z,15.78
2023-04-27T06:35:54.531Z,15.81
2023-04-27T06:36:44.604Z,15.75
2023-04-27T06:37:34.674Z,15.80
2023-04-27T06:38:24.751Z,15.79
2023-04-27T06:39:15.116Z,15.76
2023-04-27T06:40:04.922Z,15.76
2023-04-27T06:40:55.072Z,15.78
2023-04-27T06:41:45.199Z,15.72
2023-04-27T06:42:35.219Z,15.64
2023-04-27T06:43:25.323Z,15.60
2023-04-27T06:44:15.317Z,15.60
2023-04-27T06:45:05.398Z,15.58
2023-04-27T06:45:55.456Z,15.56
2023-04-27T06:46:45.494Z,15.54
2023-04-27T06:47:35.561Z,15.54
2023-04-27T06:48:25.728Z,15.58
2023-04-27T06:49:16.015Z,15.63
2023-04-27T06:50:05.774Z,15.65
2023-04-27T06:50:56.054Z,15.64
2023-04-27T06:51:46.136Z,15.70
2023-04-27T06:52:36.161Z,15.73
2023-04-27T06:53:26.251Z,15.67
2023-04-27T06:54:16.273Z,15.65
2023-04-27T06:55:06.332Z,15.68
2023-04-27T06:55:56.364Z,15.73
2023-04-27T06:56:46.461Z,15.70
2023-04-27T06:57:36.498Z,15.64
2023-04-27T06:58:26.575Z,15.61
2023-04-27T06:59:16.602Z,15.60
2023-04-27T07:00:06.693Z,15.65
2023-04-27T07:00:56.734Z,15.67
2023-04-27T07:01:46.822Z,15.62
2023-04-27T07:02:37.038Z,15.59
2023-04-27T07:03:27.006Z,15.64
2023-04-27T07:04:17.060Z,15.71
2023-04-27T07:05:07.033Z,15.75
2023-04-27T07:05:57.044Z,15.75
2023-04-27T07:06:47.134Z,15.73
2023-04-27T07:07:37.151Z,15.76
2023-04-27T07:08:27.201Z,15.75
2023-04-27T07:09:26.920Z,15.73
2023-04-27T07:10:08.304Z,15.69
2023-04-27T07:10:57.339Z,15.69
2023-04-27T07:11:47.411Z,15.68
2023-04-27T07:12:37.501Z,15.66
2023-04-27T07:13:27.535Z,15.67
2023-04-27T07:14:17.613Z,15.70
2023-04-27T07:15:07.664Z,15.78
2023-04-27T07:15:58.182Z,15.91
2023-04-27T07:16:47.950Z,15.93
2023-04-27T07:17:38.057Z,15.95
2023-04-27T07:18:28.305Z,15.99
2023-04-27T07:19:18.392Z,15.96
2023-04-27T07:20:08.444Z,15.87
2023-04-27T07:20:58.734Z,15.90
2023-04-27T07:21:48.868Z,15.87
2023-04-27T07:22:38.860Z,15.84
2023-04-27T07:23:29.177Z,15.76
2023-04-27T07:24:19.256Z,15.76
2023-04-27T07:25:09.290Z,15.76
2023-04-27T07:25:59.641Z,15.72
2023-04-27T07:26:49.674Z,15.78
2023-04-27T07:27:39.788Z,15.77
2023-04-27T07:28:30.072Z,15.76
2023-04-27T07:29:27.049Z,15.74
2023-04-27T07:30:11.213Z,15.81
2023-04-27T07:31:00.264Z,15.80
2023-04-27T07:31:52.223Z,15.76
2023-04-27T07:32:40.385Z,15.72
2023-04-27T07:33:30.367Z,15.80
2023-04-27T07:34:20.429Z,15.79
2023-04-27T07:35:10.502Z,15.77
2023-04-27T07:36:00.577Z,15.74
2023-04-27T07:36:50.688Z,15.80
2023-04-27T07:37:40.764Z,15.86
2023-04-27T07:38:30.794Z,15.85
2023-04-27T07:39:20.875Z,15.82
2023-04-27T07:40:10.930Z,15.82
2023-04-27T07:41:01.082Z,15.80
2023-04-27T07:41:51.083Z,15.75
2023-04-27T07:42:41.130Z,15.73
2023-04-27T07:43:31.179Z,15.72
2023-04-27T07:44:21.205Z,15.74
2023-04-27T07:45:11.250Z,15.76
2023-04-27T07:46:01.358Z,15.75
2023-04-27T07:46:51.354Z,15.73
2023-04-27T07:47:41.439Z,15.72
2023-04-27T07:48:31.476Z,15.74
2023-04-27T07:49:21.538Z,15.74
2023-04-27T07:50:11.612Z,15.72
2023-04-27T07:51:01.709Z,15.71
2023-04-27T07:51:51.729Z,15.77
2023-04-27T07:52:42.047Z,15.89
2023-04-27T07:53:32.052Z,15.87
2023-04-27T07:54:22.135Z,15.82
2023-04-27T07:55:12.449Z,15.90
2023-04-27T07:56:02.519Z,15.90
2023-04-27T07:56:52.537Z,15.89
2023-04-27T07:57:42.616Z,15.86
2023-04-27T07:58:32.645Z,15.97
2023-04-27T07:59:22.739Z,15.97
2023-04-27T08:00:12.786Z,15.92
2023-04-27T08:01:02.857Z,15.89
2023-04-27T08:01:55.671Z,15.90
2023-04-27T08:02:43.240Z,16.01
2023-04-27T08:03:33.256Z,16.02
2023-04-27T08:04:23.489Z,15.95
2023-04-27T08:05:13.660Z,15.93
2023-04-27T08:06:03.756Z,15.93
2023-04-27T08:06:54.045Z,15.93
2023-04-27T08:07:45.436Z,15.97
2023-04-27T08:08:33.467Z,16.04
2023-04-27T08:09:23.534Z,16.08
2023-04-27T08:10:13.656Z,16.15
2023-04-27T08:11:03.748Z,16.16
2023-04-27T08:11:53.769Z,16.17
2023-04-27T08:12:44.099Z,16.17
2023-04-27T08:13:34.128Z,16.18
2023-04-27T08:14:24.179Z,16.15
2023-04-27T08:15:14.330Z,16.11
2023-04-27T08:16:04.295Z,16.15
2023-04-27T08:16:54.352Z,16.09
2023-04-27T08:17:44.446Z,16.04
2023-04-27T08:18:34.454Z,16.09
2023-04-27T08:19:24.526Z,16.09
2023-04-27T08:20:14.533Z,16.05
2023-04-27T08:21:04.609Z,16.09
2023-04-27T08:21:54.640Z,16.14
2023-04-27T08:22:44.749Z,16.10
2023-04-27T08:23:34.791Z,16.06
2023-04-27T08:24:24.860Z,15.99
2023-04-27T08:25:14.910Z,16.06
2023-04-27T08:26:05.003Z,16.09
2023-04-27T08:26:55.024Z,16.10
2023-04-27T08:27:45.093Z,16.11
2023-04-27T08:28:35.370Z,16.11
2023-04-27T08:29:28.546Z,16.16
2023-04-27T08:30:15.513Z,16.20
2023-04-27T08:31:05.772Z,16.25
2023-04-27T08:31:56.873Z,16.29
2023-04-27T08:32:45.768Z,16.26
2023-04-27T08:33:35.782Z,16.22
2023-04-27T08:34:25.901Z,16.16
2023-04-27T08:35:16.101Z,16.10
2023-04-27T08:36:06.199Z,16.07
2023-04-27T08:36:56.211Z,16.02
2023-04-27T08:37:46.566Z,15.96
2023-04-27T08:38:36.618Z,15.95
2023-04-27T08:39:26.698Z,15.97
2023-04-27T08:40:17.856Z,15.93
2023-04-27T08:41:18.332Z,15.94
2023-04-27T08:41:58.096Z,15.89
2023-04-27T08:42:47.183Z,15.91
2023-04-27T08:43:37.209Z,15.94
2023-04-27T08:44:27.280Z,15.94
2023-04-27T08:45:17.340Z,15.98
2023-04-27T08:46:07.446Z,15.99
2023-04-27T08:46:57.495Z,16.00
2023-04-27T08:47:47.631Z,15.98
2023-04-27T08:48:37.664Z,16.04
2023-04-27T08:49:27.714Z,16.07
2023-04-27T08:50:17.739Z,16.09
2023-04-27T08:51:07.859Z,16.12
2023-04-27T08:51:57.839Z,16.13
2023-04-27T08:52:47.922Z,16.19
2023-04-27T08:53:37.982Z,16.20
2023-04-27T08:54:28.056Z,16.19
2023-04-27T08:55:18.127Z,16.24
2023-04-27T08:56:08.214Z,16.29
2023-04-27T08:56:58.452Z,16.34
2023-04-27T08:57:48.527Z,16.25
2023-04-27T08:58:38.544Z,16.16
2023-04-27T08:59:28.624Z,16.12
2023-04-27T09:00:18.669Z,16.10
2023-04-27T09:01:08.769Z,16.09
2023-04-27T09:01:58.820Z,16.07
2023-04-27T09:02:49.078Z,16.02
2023-04-27T09:03:39.050Z,15.98
2023-04-27T09:04:29.103Z,15.97
2023-04-27T09:05:19.027Z,15.97
2023-04-27T09:06:09.079Z,15.94
2023-04-27T09:06:59.084Z,16.01
2023-04-27T09:07:49.160Z,15.99
2023-04-27T09:08:39.201Z,15.96
2023-04-27T09:09:29.284Z,15.96
2023-04-27T09:10:19.316Z,15.98
2023-04-27T09:11:09.402Z,15.95
2023-04-27T09:11:59.449Z,15.93
2023-04-27T09:12:49.501Z,15.97
2023-04-27T09:13:39.534Z,15.97
2023-04-27T09:14:29.608Z,15.95
2023-04-27T09:15:19.632Z,15.94
2023-04-27T09:16:09.789Z,15.93
2023-04-27T09:16:59.862Z,15.89
2023-04-27T09:17:49.931Z,15.91
2023-04-27T09:18:39.863Z,15.93
2023-04-27T09:19:29.977Z,15.93
2023-04-27T09:20:20.070Z,15.91
2023-04-27T09:21:10.130Z,15.98
2023-04-27T09:22:00.179Z,15.97
2023-04-27T09:22:50.242Z,15.96
2023-04-27T09:23:40.267Z,15.96
2023-04-27T09:24:30.327Z,16.00
2023-04-27T09:25:20.393Z,16.07
2023-04-27T09:26:10.496Z,16.05
2023-04-27T09:27:01.088Z,16.05
2023-04-27T09:27:50.581Z,16.11
2023-04-27T09:28:40.652Z,16.12
2023-04-27T09:29:30.717Z,16.10
2023-04-27T09:30:20.821Z,16.09
2023-04-27T09:31:10.953Z,16.15
2023-04-27T09:32:00.979Z,16.21
2023-04-27T09:32:51.012Z,16.18
2023-04-27T09:33:40.989Z,16.19
2023-04-27T09:34:31.874Z,16.16
2023-04-27T09:35:21.355Z,16.17
2023-04-27T09:36:11.423Z,16.18
2023-04-27T09:37:01.454Z,16.21
2023-04-27T09:37:51.504Z,16.19
2023-04-27T09:38:41.541Z,16.19
2023-04-27T09:39:31.636Z,16.16
2023-04-27T09:40:21.639Z,16.14
2023-04-27T09:41:11.764Z,16.19
2023-04-27T09:42:01.766Z,16.19
2023-04-27T09:42:51.844Z,16.18
2023-04-27T09:43:41.877Z,16.20
2023-04-27T09:44:31.916Z,16.26
2023-04-27T09:45:21.940Z,16.28
2023-04-27T09:46:12.089Z,16.31
2023-04-27T09:47:02.074Z,16.33
2023-04-27T09:47:52.147Z,16.29
2023-04-27T09:48:42.177Z,16.28
2023-04-27T09:49:32.423Z,16.25
2023-04-27T09:50:22.307Z,16.22
2023-04-27T09:51:12.409Z,16.22
2023-04-27T09:52:02.450Z,16.25
2023-04-27T09:52:52.488Z,16.29
2023-04-27T09:53:42.567Z,16.30
2023-04-27T09:54:32.578Z,16.32
2023-04-27T09:55:22.611Z,16.33
2023-04-27T09:56:12.660Z,16.36
2023-04-27T09:57:02.703Z,16.40
2023-04-27T09:57:52.771Z,16.42
2023-04-27T09:58:42.800Z,16.43
2023-04-27T09:59:32.847Z,16.45
2023-04-27T10:00:22.906Z,16.47
2023-04-27T10:01:12.942Z,16.48
2023-04-27T10:02:13.310Z,16.49
2023-04-27T10:02:53.964Z,16.48
2023-04-27T10:03:43.181Z,16.46
2023-04-27T10:04:33.279Z,16.42
2023-04-27T10:05:23.282Z,16.40
2023-04-27T10:06:13.305Z,16.37
2023-04-27T10:07:03.347Z,16.35
2023-04-27T10:07:53.435Z,16.36
2023-04-27T10:08:43.732Z,16.35
2023-04-27T10:09:33.799Z,16.32
2023-04-27T10:10:23.876Z,16.30
2023-04-27T10:11:14.173Z,16.29
2023-04-27T10:12:04.207Z,16.30
2023-04-27T10:12:54.269Z,16.34
2023-04-27T10:13:44.345Z,16.34
2023-04-27T10:14:34.373Z,16.33
2023-04-27T10:15:24.422Z,16.32
2023-04-27T10:16:14.497Z,16.30
2023-04-27T10:17:04.618Z,16.25
2023-04-27T10:17:54.597Z,16.23
2023-04-27T10:18:44.648Z,16.22
2023-04-27T10:19:34.715Z,16.29
2023-04-27T10:20:25.067Z,16.34
2023-04-27T10:21:15.130Z,16.33
2023-04-27T10:22:05.157Z,16.38
2023-04-27T10:22:55.492Z,16.32
2023-04-27T10:23:45.570Z,16.30
2023-04-27T10:24:35.591Z,16.33
2023-04-27T10:25:25.678Z,16.37
2023-04-27T10:26:15.765Z,16.40
2023-04-27T10:27:05.804Z,16.42
2023-04-27T10:27:55.861Z,16.40
2023-04-27T10:28:45.930Z,16.38
2023-04-27T10:29:36.005Z,16.36
2023-04-27T10:30:26.092Z,16.39
2023-04-27T10:31:16.235Z,16.36
2023-04-27T10:32:06.327Z,16.39
2023-04-27T10:32:56.456Z,16.43
2023-04-27T10:33:46.448Z,16.43
2023-04-27T10:34:36.478Z,16.36
2023-04-27T10:35:26.560Z,16.34
2023-04-27T10:36:16.662Z,16.30
2023-04-27T10:37:06.667Z,16.26
2023-04-27T10:37:56.773Z,16.23
2023-04-27T10:38:46.848Z,16.23
2023-04-27T10:39:47.109Z,16.23
2023-04-27T10:40:27.917Z,16.21
2023-04-27T10:41:17.002Z,16.24
2023-04-27T10:42:07.002Z,16.24
2023-04-27T10:42:57.093Z,16.29
2023-04-27T10:43:47.142Z,16.30
2023-04-27T10:44:37.214Z,16.32